Kantner, PA (15548)

4:31 AM EDT on September 19, 2014 (GMT -0400)
Stoystown | Change Station
CLOSE
Current Station
Personal Weather Station
Location: Stoystown, PA
Elevation: 2172 ft
Nearby Weather Stations

Elev 2172 ft 40.11 °N, 78.94 °W | Updated 9 seconds ago

Partly Cloudy
Partly Cloudy
46.0 °F
Feels Like 46 °F
N
0.0
Wind Variable Wind from West
Gusts 0.0 mph

Today
High -- | Low -- °F
--% Chance of Precip.
Yesterday
High -- | Low -- °F
Precip. -- in
7:00 AM 7:17 PM
Waning Crescent, 21% visible
Pressure 30.20 in
Visibility 5.0 miles
Clouds Few 6500 ft
Windchill 46 °F
Dew Point 33 °F
Humidity 61%
Rainfall 0.00 in
Snow Depth Not available.
UV 0 out of 12
Pollen 3.60 out of 12
Ozone Good
PM2.5 Moderate
Flu Activity Not available.
METAR KJST 190754Z AUTO 06004KT 5SM BR FEW065 08/07 A3020 RMK AO2 SLP226 T00780067

More Conditions Fewer Conditions

Pressure 30.20 in
Visibility 5.0 miles
Clouds Few 6500 ft
Windchill 46 °F
Dew Point 33 °F
Humidity 61%
Rainfall 0.00 in
Snow Depth Not available.
UV 0 out of 12
Pollen 3.60 out of 12
Ozone Good
PM2.5 Moderate
Flu Activity Not available.
METAR KJST 190754Z AUTO 06004KT 5SM BR FEW065 08/07 A3020 RMK AO2 SLP226 T00780067

More Conditions Fewer Conditions

10-Day Weather Forecast

Almanac

Astronomy

Sep. 19, 2014 Rise Set
Actual Time 7:00 AM EDT 7:17 PM EDT
Civil Twilight 6:33 AM EDT 7:44 PM EDT
Nautical Twilight 6:01 AM EDT 8:16 PM EDT
Astronomical Twilight 5:28 AM EDT 8:49 PM EDT
Moon 2:43 AM EDT 4:45 PM EDT
Length of Visible Light 13h 11m
Length of Day
12h 17m
Tomorrow will be 2m 37s shorter.
Waning Crescent, 21% of the Moon is Illuminated
Today
Waning Crescent
Sep 24
New
Oct 1
First Quarter
Oct 8
Full
Oct 15
Last Quarter

Today's Extremes

State Highs State Lows

Community

WunderPhotos

Upload Photos

1,754,580 photos uploaded!

Nearby

Air Quality

  Air Quality AQ Index Pollutant
Yesterday Moderate
PM2.5
Yesterday Good
OZONE
Current Moderate
PM2.5
Current Good
OZONE
Friday Moderate
PM2.5
Saturday Moderate
PM2.5

Snow Depth

Station Depth Elevation
No new snow has been reported.

Earthquake Activity

City Distance Mag. Time & Date
No recent earthquake activity has been reported nearby.
Minimum magnitude displayed is 2.5.

Coastal Water Temperatures

Place Temperature
No Stations Reporting

Nearby Weather Stations